Time;durP1;ratioP1;P1;durP2;ratioP2;P2;SDS_P1;SDS_P2;PMS_P1;PMS_P2;Temp;Humidity;BMP_temperature;BMP_pressure;BME280_temperature;BME280_humidity;BME280_pressure;Samples;Min_cycle;Max_cycle;Signal;HPM_P1;HPM_P2
2022/03/11 00:01:50;;;;;;;26.25;12.68;;;7.60;1.00;;;;;;4827915;29;20100;-89
2022/03/11 00:04:16;;;;;;;20.48;11.20;;;5.10;1.00;;;;;;4831349;29;20124;-90
2022/03/11 00:07:00;;;;;;;18.40;11.10;;;5.50;1.00;;;;;;4833525;29;20049;-90
2022/03/11 00:09:26;;;;;;;22.42;11.77;;;6.30;1.00;;;;;;4837929;29;20050;-90
2022/03/11 00:11:54;;;;;;;19.30;11.23;;;5.50;1.00;;;;;;4791762;29;20487;-89
2022/03/11 00:14:20;;;;;;;27.52;12.98;;;;;;;;;;4800637;29;20129;-89
2022/03/11 00:16:47;;;;;;;22.73;11.35;;;5.40;1.00;;;;;;4828042;29;20061;-89
2022/03/11 00:19:12;;;;;;;20.70;11.50;;;5.60;1.00;;;;;;4805506;29;20042;-89
2022/03/11 00:21:38;;;;;;;18.27;10.70;;;5.20;1.00;;;;;;4829604;29;20042;-89
2022/03/11 00:24:04;;;;;;;21.33;11.70;;;5.30;1.00;;;;;;4812078;29;20042;-89
2022/03/11 00:26:32;;;;;;;20.83;10.88;;;5.20;1.00;;;;;;4819236;29;20054;-88
2022/03/11 00:28:58;;;;;;;19.23;11.20;;;5.60;1.00;;;;;;4825383;29;20053;-89
2022/03/11 00:31:25;;;;;;;24.80;11.35;;;5.10;1.00;;;;;;4819833;29;20147;-88
2022/03/11 00:33:50;;;;;;;24.10;11.77;;;6.60;1.00;;;;;;4832103;29;20468;-89
2022/03/11 00:36:16;;;;;;;21.73;10.98;;;4.20;1.00;;;;;;4790294;29;20043;-88
2022/03/11 00:38:48;;;;;;;22.70;11.13;;;5.50;1.00;;;;;;4791402;29;20073;-89
2022/03/11 00:41:14;;;;;;;19.35;11.05;;;5.40;1.00;;;;;;4806445;29;20034;-88
2022/03/11 00:43:40;;;;;;;20.40;10.75;;;5.50;1.00;;;;;;4824430;29;20058;-89
2022/03/11 00:46:07;;;;;;;23.48;11.07;;;4.90;1.00;;;;;;4802553;29;20057;-88
2022/03/11 00:48:36;;;;;;;18.38;9.88;;;4.90;1.00;;;;;;4843396;29;20483;-87
2022/03/11 00:51:01;;;;;;;20.95;10.88;;;3.60;1.00;;;;;;4837265;29;20053;-89
2022/03/11 00:53:30;;;;;;;26.08;11.00;;;4.90;1.00;;;;;;4831004;29;20054;-90
2022/03/11 00:55:56;;;;;;;24.65;10.52;;;7.40;1.00;;;;;;4810658;29;20069;-90
2022/03/11 00:58:34;;;;;;;18.77;10.70;;;6.80;1.00;;;;;;4833236;29;20145;-90
2022/03/11 01:01:15;;;;;;;20.45;9.95;;;;;;;;;;4821544;29;20041;-91
2022/03/11 01:03:54;;;;;;;19.55;9.98;;;;;;;;;;4825281;29;20491;-90
2022/03/11 01:06:20;;;;;;;19.10;10.23;;;4.20;1.00;;;;;;4836109;29;20046;-90
2022/03/11 01:08:45;;;;;;;18.35;9.32;;;7.30;1.00;;;;;;4855076;29;20034;-90
2022/03/11 01:11:12;;;;;;;18.35;9.18;;;4.90;1.00;;;;;;4832290;29;20026;-92
2022/03/11 01:13:38;;;;;;;21.20;10.23;;;7.10;1.00;;;;;;4855167;29;20057;-90
2022/03/11 01:16:05;;;;;;;18.80;10.35;;;4.90;1.00;;;;;;4852308;29;20038;-91
2022/03/11 01:18:31;;;;;;;22.27;10.73;;;4.90;1.00;;;;;;4823608;29;20042;-90
2022/03/11 01:21:18;;;;;;;20.98;10.43;;;4.90;1.00;;;;;;4848675;29;20054;-89
2022/03/11 01:23:50;;;;;;;22.90;9.23;;;4.00;1.00;;;;;;4824690;29;20102;-88
2022/03/11 01:26:16;;;;;;;19.25;10.23;;;5.50;1.00;;;;;;4828776;29;20385;-90
2022/03/11 01:28:42;;;;;;;17.25;10.15;;;5.00;1.00;;;;;;4832288;29;20051;-88
2022/03/11 01:31:14;;;;;;;16.73;10.00;;;5.30;1.00;;;;;;4818455;29;20391;-90
2022/03/11 01:33:43;;;;;;;18.35;9.30;;;5.00;1.00;;;;;;4818838;29;20050;-89
2022/03/11 01:36:10;;;;;;;19.48;9.82;;;6.40;1.00;;;;;;4825511;29;20392;-92
2022/03/11 01:38:37;;;;;;;22.10;10.27;;;5.70;1.00;;;;;;4834545;29;20053;-88
2022/03/11 01:41:03;;;;;;;24.95;10.35;;;5.20;1.00;;;;;;4843778;29;20153;-89
2022/03/11 01:43:29;;;;;;;25.92;9.77;;;5.00;1.00;;;;;;4818870;29;20205;-89
2022/03/11 01:45:56;;;;;;;22.80;9.68;;;4.90;1.00;;;;;;4826495;29;20090;-89
2022/03/11 01:48:22;;;;;;;16.80;9.48;;;4.10;1.00;;;;;;4827016;29;20047;-89
2022/03/11 01:50:48;;;;;;;22.02;10.68;;;6.50;1.00;;;;;;4824306;29;20061;-89
2022/03/11 01:53:14;;;;;;;19.80;10.52;;;4.80;1.00;;;;;;4809140;29;20350;-89
2022/03/11 01:55:40;;;;;;;19.40;10.02;;;6.40;1.00;;;;;;4818679;29;20055;-89
2022/03/11 01:58:07;;;;;;;18.60;10.60;;;4.90;1.00;;;;;;4808552;29;20046;-89
2022/03/11 02:00:40;;;;;;;19.88;11.10;;;5.30;1.00;;;;;;4817112;29;20584;-90
2022/03/11 02:03:07;;;;;;;19.98;11.23;;;4.80;1.00;;;;;;4814135;29;20063;-89
2022/03/11 02:05:34;;;;;;;19.70;11.07;;;5.00;1.00;;;;;;4838552;29;20118;-89
2022/03/11 02:07:59;;;;;;;21.38;11.50;;;5.80;1.00;;;;;;4841244;29;20056;-89
2022/03/11 02:10:30;;;;;;;23.42;11.85;;;5.70;1.00;;;;;;4837887;29;20050;-88
2022/03/11 02:12:59;;;;;;;21.08;10.95;;;2.50;1.00;;;;;;4841156;29;20077;-90
2022/03/11 02:15:25;;;;;;;20.10;11.88;;;4.80;1.00;;;;;;4835299;29;20054;-88
2022/03/11 02:17:51;;;;;;;21.27;11.75;;;5.50;1.00;;;;;;4817707;29;20069;-89
2022/03/11 02:20:17;;;;;;;20.88;12.65;;;5.50;1.00;;;;;;4796013;29;20045;-88
2022/03/11 02:22:44;;;;;;;18.98;11.43;;;4.60;1.00;;;;;;4800382;29;20093;-88
2022/03/11 02:25:10;;;;;;;20.70;11.85;;;4.50;1.00;;;;;;4815813;29;20582;-88
2022/03/11 02:27:37;;;;;;;22.83;12.32;;;6.70;1.00;;;;;;4840220;29;20124;-88
2022/03/11 02:30:14;;;;;;;23.05;12.70;;;7.00;1.00;;;;;;4817298;29;20066;-88
2022/03/11 02:32:41;;;;;;;30.10;14.02;;;4.90;1.00;;;;;;4803497;29;20042;-89
2022/03/11 02:35:07;;;;;;;20.75;12.48;;;2.10;1.00;;;;;;4811248;29;20046;-89
2022/03/11 02:37:33;;;;;;;22.17;13.20;;;5.20;1.00;;;;;;4819936;29;20449;-89
2022/03/11 02:39:59;;;;;;;22.60;12.93;;;6.50;1.00;;;;;;4828175;29;20061;-89
2022/03/11 02:42:25;;;;;;;24.88;14.07;;;4.70;1.00;;;;;;4816443;29;20122;-88
2022/03/11 02:44:50;;;;;;;23.63;12.88;;;6.70;1.00;;;;;;4830398;29;20050;-90
2022/03/11 02:47:16;;;;;;;26.52;13.88;;;4.40;1.00;;;;;;4817722;29;20054;-89
2022/03/11 02:49:42;;;;;;;26.70;14.40;;;;;;;;;;4816166;29;20109;-90
2022/03/11 02:52:08;;;;;;;24.27;14.48;;;;;;;;;;4804632;29;20063;-88
2022/03/11 02:54:34;;;;;;;28.60;14.50;;;4.40;1.00;;;;;;4823778;29;20050;-88
2022/03/11 02:57:00;;;;;;;29.45;15.15;;;4.40;1.00;;;;;;4826300;29;20054;-89
2022/03/11 02:59:26;;;;;;;26.42;14.50;;;4.00;1.00;;;;;;4823976;29;20065;-90
2022/03/11 03:01:52;;;;;;;31.55;15.00;;;4.20;1.00;;;;;;4793975;29;20462;-89
2022/03/11 03:04:19;;;;;;;24.85;15.35;;;;;;;;;;4807755;29;20148;-89
2022/03/11 03:06:44;;;;;;;26.08;14.60;;;4.30;1.00;;;;;;4791736;29;20129;-89
2022/03/11 03:09:10;;;;;;;35.33;16.40;;;2.80;1.00;;;;;;4833563;29;20182;-89
2022/03/11 03:11:36;;;;;;;28.75;14.85;;;5.10;1.00;;;;;;4830895;29;20489;-89
2022/03/11 03:14:02;;;;;;;28.25;15.85;;;4.70;1.00;;;;;;4816029;29;20053;-90
2022/03/11 03:16:28;;;;;;;34.42;15.68;;;4.50;1.00;;;;;;4813911;29;20054;-90
2022/03/11 03:18:54;;;;;;;25.77;15.90;;;6.00;1.00;;;;;;4814547;29;20042;-90
2022/03/11 03:21:20;;;;;;;29.20;16.60;;;5.70;1.00;;;;;;4804951;29;20042;-90
2022/03/11 03:23:45;;;;;;;28.52;17.10;;;4.10;1.00;;;;;;4798574;29;20054;-88
2022/03/11 03:26:11;;;;;;;29.15;17.33;;;4.00;1.00;;;;;;4787219;29;20057;-90
2022/03/11 03:28:37;;;;;;;33.13;17.10;;;;;;;;;;4826184;29;20038;-89
2022/03/11 03:31:03;;;;;;;28.42;17.10;;;4.00;1.00;;;;;;4826112;29;20054;-88
2022/03/11 03:33:31;;;;;;;30.98;16.98;;;4.20;1.00;;;;;;4792266;29;20042;-89
2022/03/11 03:35:59;;;;;;;27.75;16.17;;;3.80;1.00;;;;;;4812741;29;20050;-89
2022/03/11 03:38:25;;;;;;;31.65;17.73;;;4.20;1.00;;;;;;4820736;29;20043;-88
2022/03/11 03:40:51;;;;;;;33.25;18.15;;;3.80;1.00;;;;;;4805106;29;20050;-89
2022/03/11 03:43:18;;;;;;;35.42;18.98;;;;;;;;;;4809875;29;20058;-89
2022/03/11 03:45:43;;;;;;;29.43;16.53;;;3.90;1.00;;;;;;4797510;29;20062;-89
2022/03/11 03:48:09;;;;;;;30.13;17.75;;;4.00;1.00;;;;;;4810704;29;20061;-89
2022/03/11 03:50:35;;;;;;;33.35;17.90;;;4.10;1.00;;;;;;4827627;29;20042;-89
2022/03/11 03:53:01;;;;;;;30.38;18.48;;;6.50;1.00;;;;;;4834216;29;20058;-89
2022/03/11 03:55:27;;;;;;;32.10;18.90;;;3.00;1.00;;;;;;4786839;29;20130;-89
2022/03/11 03:57:53;;;;;;;32.63;18.58;;;3.90;1.00;;;;;;4818920;29;20452;-90
2022/03/11 04:00:19;;;;;;;35.00;19.33;;;5.60;1.00;;;;;;4810247;29;20142;-89
2022/03/11 04:02:49;;;;;;;36.67;18.92;;;5.70;1.00;;;;;;4826975;29;20090;-89
2022/03/11 04:05:16;;;;;;;53.22;21.05;;;4.10;1.00;;;;;;4812527;29;20058;-88
2022/03/11 04:07:43;;;;;;;36.65;20.77;;;3.80;1.00;;;;;;4825589;29;20046;-89
2022/03/11 04:10:11;;;;;;;36.75;20.17;;;4.30;1.00;;;;;;4791203;29;20046;-89
2022/03/11 04:12:37;;;;;;;34.67;20.38;;;3.70;1.00;;;;;;4810125;29;20050;-90
2022/03/11 04:15:04;;;;;;;38.63;19.95;;;4.10;1.00;;;;;;4834045;29;20086;-89
2022/03/11 04:17:30;;;;;;;35.53;20.23;;;4.30;1.00;;;;;;4801101;29;20119;-89
2022/03/11 04:19:55;;;;;;;33.30;18.60;;;6.20;1.00;;;;;;4816990;29;20046;-89
2022/03/11 04:22:21;;;;;;;36.63;19.17;;;3.50;1.00;;;;;;4830801;29;20426;-90
2022/03/11 04:24:47;;;;;;;38.13;20.45;;;3.70;1.00;;;;;;4828337;29;20110;-89
2022/03/11 04:27:13;;;;;;;35.50;21.42;;;6.40;1.00;;;;;;4811943;29;20053;-89
2022/03/11 04:29:39;;;;;;;36.67;20.80;;;3.70;1.00;;;;;;4793762;29;20231;-89
2022/03/11 04:32:05;;;;;;;34.95;21.00;;;3.50;1.00;;;;;;4826386;29;20507;-89
2022/03/11 04:34:31;;;;;;;35.53;21.95;;;3.00;1.00;;;;;;4825788;29;20086;-88
2022/03/11 04:36:59;;;;;;;33.67;19.70;;;5.80;1.00;;;;;;4821424;29;20139;-89
2022/03/11 04:39:26;;;;;;;36.15;20.80;;;3.40;1.00;;;;;;4836014;29;20046;-90
2022/03/11 04:41:56;;;;;;;37.45;20.60;;;3.40;1.00;;;;;;4822122;29;20052;-88
2022/03/11 04:44:22;;;;;;;38.53;21.63;;;5.70;1.00;;;;;;4842393;29;20049;-89
2022/03/11 04:46:48;;;;;;;37.13;20.27;;;6.10;1.00;;;;;;4823225;29;20046;-90
2022/03/11 04:49:14;;;;;;;40.33;21.13;;;4.40;1.00;;;;;;4840363;29;20061;-89
2022/03/11 04:51:39;;;;;;;39.20;20.85;;;4.70;1.00;;;;;;4841186;29;20077;-89
2022/03/11 04:54:06;;;;;;;37.30;22.33;;;3.40;1.00;;;;;;4813713;29;20475;-89
2022/03/11 04:56:33;;;;;;;40.88;22.25;;;3.50;1.00;;;;;;4832606;29;20050;-89
2022/03/11 04:58:59;;;;;;;35.53;20.75;;;3.50;1.00;;;;;;4816778;29;20111;-90
2022/03/11 05:01:25;;;;;;;35.92;20.10;;;;;;;;;;4818156;29;20042;-90
2022/03/11 05:03:51;;;;;;;39.08;21.00;;;;;;;;;;4811661;29;20141;-89
2022/03/11 05:06:17;;;;;;;39.08;21.08;;;3.40;1.00;;;;;;4834745;29;20058;-88
2022/03/11 05:08:44;;;;;;;32.83;21.27;;;2.30;1.00;;;;;;4808615;29;20055;-89
2022/03/11 05:11:10;;;;;;;35.80;19.55;;;3.30;1.00;;;;;;4818943;29;20503;-89
2022/03/11 05:13:36;;;;;;;37.03;21.02;;;;;;;;;;4831422;29;20125;-89
2022/03/11 05:16:02;;;;;;;42.17;21.80;;;2.00;1.00;;;;;;4820379;29;20042;-90
2022/03/11 05:18:28;;;;;;;38.35;22.25;;;3.10;1.00;;;;;;4819611;29;20574;-90
2022/03/11 05:20:54;;;;;;;35.95;21.63;;;5.70;1.00;;;;;;4823192;29;20089;-89
2022/03/11 05:23:21;;;;;;;39.72;23.30;;;2.90;1.00;;;;;;4804820;29;20077;-90
2022/03/11 05:25:47;;;;;;;40.65;22.30;;;3.40;1.00;;;;;;4807592;29;20362;-89
2022/03/11 05:28:13;;;;;;;35.75;21.00;;;;;;;;;;4821704;29;20050;-89
2022/03/11 05:30:40;;;;;;;40.15;22.27;;;4.40;1.00;;;;;;4806902;29;20050;-90
2022/03/11 05:33:06;;;;;;;37.78;22.00;;;5.90;1.00;;;;;;4822119;29;20412;-89
2022/03/11 05:35:32;;;;;;;38.47;21.92;;;5.80;1.00;;;;;;4823191;29;20042;-91
2022/03/11 05:37:58;;;;;;;34.45;21.08;;;3.70;1.00;;;;;;4769152;29;20058;-88
2022/03/11 05:40:24;;;;;;;37.95;22.60;;;5.50;1.00;;;;;;4775003;29;20533;-88
2022/03/11 05:42:50;;;;;;;37.97;22.33;;;2.70;1.00;;;;;;4796468;29;20153;-89
2022/03/11 05:45:17;;;;;;;36.90;21.80;;;5.00;1.00;;;;;;4809189;29;20105;-90
2022/03/11 05:47:43;;;;;;;37.05;22.38;;;3.00;1.00;;;;;;4792159;29;20046;-90
2022/03/11 05:50:09;;;;;;;36.17;20.85;;;2.20;1.00;;;;;;4810903;29;20137;-90
2022/03/11 05:52:37;;;;;;;42.20;22.90;;;3.00;1.00;;;;;;4823606;29;20377;-88
2022/03/11 05:55:06;;;;;;;37.80;22.23;;;;;;;;;;4807368;29;20061;-88
2022/03/11 05:57:32;;;;;;;40.22;22.13;;;;;;;;;;4833311;29;20054;-92
2022/03/11 05:59:58;;;;;;;35.78;22.35;;;3.00;1.00;;;;;;4823351;29;20511;-88
2022/03/11 06:02:24;;;;;;;37.42;21.67;;;2.60;1.00;;;;;;4792284;29;20059;-89
2022/03/11 06:04:49;;;;;;;38.72;21.65;;;4.20;1.00;;;;;;4823323;29;20064;-91
2022/03/11 06:07:15;;;;;;;42.25;22.27;;;3.10;1.00;;;;;;4820576;29;20046;-89
2022/03/11 06:09:41;;;;;;;37.10;21.05;;;3.30;1.00;;;;;;4833099;29;20038;-89
2022/03/11 06:12:07;;;;;;;35.85;21.95;;;3.40;1.00;;;;;;4824518;29;20050;-90
2022/03/11 06:14:33;;;;;;;42.42;24.38;;;2.90;1.00;;;;;;4821931;29;20057;-87
2022/03/11 06:16:59;;;;;;;34.78;20.63;;;3.50;1.00;;;;;;4834640;29;20054;-89
2022/03/11 06:19:25;;;;;;;36.95;20.58;;;4.20;1.00;;;;;;4824106;29;20115;-89
2022/03/11 06:21:51;;;;;;;41.55;23.48;;;2.20;1.00;;;;;;4822986;29;20050;-90
2022/03/11 06:24:17;;;;;;;40.40;22.02;;;5.40;1.00;;;;;;4792191;29;20107;-90
2022/03/11 06:26:43;;;;;;;41.95;22.63;;;5.50;1.00;;;;;;4810303;29;20129;-90
2022/03/11 06:29:10;;;;;;;37.92;22.33;;;3.00;1.00;;;;;;4823592;29;20141;-89
2022/03/11 06:31:36;;;;;;;36.95;22.42;;;5.70;1.00;;;;;;4812858;29;20460;-89
2022/03/11 06:34:02;;;;;;;41.00;23.45;;;1.90;1.00;;;;;;4826486;29;20472;-89
2022/03/11 06:36:28;;;;;;;37.22;21.58;;;1.40;1.00;;;;;;4838697;29;20053;-89
2022/03/11 06:38:55;;;;;;;35.97;22.27;;;1.80;1.00;;;;;;4814632;29;20053;-89
2022/03/11 06:41:22;;;;;;;36.67;22.15;;;;;;;;;;4808084;29;20357;-88
2022/03/11 06:43:48;;;;;;;44.05;22.95;;;;;;;;;;4831350;29;20085;-89
2022/03/11 06:46:14;;;;;;;36.35;20.60;;;3.00;1.00;;;;;;4803444;29;20057;-89
2022/03/11 06:48:43;;;;;;;38.50;22.20;;;0.50;1.00;;;;;;4834253;29;20035;-89
2022/03/11 06:51:08;;;;;;;38.28;21.08;;;3.30;1.00;;;;;;4807078;29;20077;-89
2022/03/11 06:53:36;;;;;;;38.85;21.05;;;;;;;;;;4809401;29;20063;-88
2022/03/11 06:56:02;;;;;;;36.28;21.15;;;;;;;;;;4829602;29;20110;-88
2022/03/11 06:58:33;;;;;;;35.78;21.58;;;3.30;1.00;;;;;;4838264;29;20109;-88
2022/03/11 07:00:59;;;;;;;42.13;22.00;;;3.10;1.00;;;;;;4813246;29;20122;-89
2022/03/11 07:03:24;;;;;;;35.30;21.25;;;3.50;1.00;;;;;;4826984;29;20086;-88
2022/03/11 07:05:50;;;;;;;35.80;20.17;;;5.60;1.00;;;;;;4816788;29;20034;-89
2022/03/11 07:08:16;;;;;;;36.33;20.88;;;4.00;1.00;;;;;;4806292;29;20053;-89
2022/03/11 07:10:42;;;;;;;36.35;21.30;;;3.30;1.00;;;;;;4824165;29;20387;-89
2022/03/11 07:13:07;;;;;;;40.00;21.65;;;6.10;1.00;;;;;;4803088;29;20058;-88
2022/03/11 07:15:33;;;;;;;41.85;21.73;;;3.40;1.00;;;;;;4791060;29;20058;-88
2022/03/11 07:17:59;;;;;;;36.80;20.45;;;5.60;1.00;;;;;;4810939;29;20038;-89
2022/03/11 07:20:25;;;;;;;40.03;21.92;;;4.00;1.00;;;;;;4791274;29;20118;-88
2022/03/11 07:22:51;;;;;;;38.13;22.30;;;3.30;1.00;;;;;;4827736;29;20111;-88
2022/03/11 07:25:17;;;;;;;35.92;20.20;;;6.40;1.00;;;;;;4792561;29;20417;-88
2022/03/11 07:27:45;;;;;;;35.25;20.75;;;;;;;;;;4806338;29;20054;-88
2022/03/11 07:30:12;;;;;;;33.95;19.98;;;3.70;1.00;;;;;;4806448;29;20130;-90
2022/03/11 07:32:41;;;;;;;37.05;20.83;;;3.80;1.00;;;;;;4821926;29;20157;-88
2022/03/11 07:35:12;;;;;;;36.78;21.35;;;3.90;1.00;;;;;;4821234;29;20136;-89
2022/03/11 07:37:44;;;;;;;35.65;20.35;;;4.10;1.00;;;;;;4807328;29;20132;-89
2022/03/11 07:40:11;;;;;;;38.38;22.42;;;4.00;1.00;;;;;;4791167;29;20128;-89
2022/03/11 07:42:42;;;;;;;38.38;20.40;;;4.00;1.00;;;;;;4822387;29;20054;-88
2022/03/11 07:45:16;;;;;;;37.95;21.02;;;5.90;1.00;;;;;;4823138;29;20066;-89
2022/03/11 07:47:42;;;;;;;40.28;20.10;;;3.50;1.00;;;;;;4834254;29;20045;-88
2022/03/11 07:50:11;;;;;;;36.70;20.50;;;4.60;1.00;;;;;;4809463;29;20050;-88
2022/03/11 07:52:38;;;;;;;37.75;20.38;;;4.20;1.00;;;;;;4840249;29;20066;-89
2022/03/11 07:55:07;;;;;;;36.63;20.65;;;2.80;1.00;;;;;;4824654;29;20058;-90
2022/03/11 07:57:39;;;;;;;32.13;18.08;;;5.40;1.00;;;;;;4834554;29;20050;-88
2022/03/11 08:00:08;;;;;;;36.67;21.40;;;4.40;1.00;;;;;;4827117;29;20137;-88
2022/03/11 08:02:35;;;;;;;32.05;17.90;;;4.50;1.00;;;;;;4776712;29;20135;-88
2022/03/11 08:05:01;;;;;;;37.78;21.45;;;4.60;1.00;;;;;;4791798;29;20062;-89
2022/03/11 08:07:27;;;;;;;32.80;20.55;;;4.70;1.00;;;;;;4806245;29;20232;-88
2022/03/11 08:09:58;;;;;;;36.97;20.05;;;;;;;;;;4823158;29;20052;-89
2022/03/11 08:12:25;;;;;;;34.00;17.80;;;5.60;1.00;;;;;;4792342;29;20404;-88
2022/03/11 08:14:51;;;;;;;32.83;18.52;;;;;;;;;;4821765;29;20050;-89
2022/03/11 08:17:17;;;;;;;29.10;17.98;;;8.20;1.00;;;;;;4806654;29;20433;-89
2022/03/11 08:19:43;;;;;;;33.10;18.42;;;8.70;1.00;;;;;;4790144;29;20054;-90
2022/03/11 08:22:11;;;;;;;34.47;17.00;;;10.10;1.00;;;;;;4804065;29;20405;-87
2022/03/11 08:24:36;;;;;;;;;;;10.50;1.00;;;;;;4803192;29;20043;-89
2022/03/11 08:27:02;;;;;;;31.60;17.58;;;10.60;1.00;;;;;;4787156;29;19931;-89
2022/03/11 08:29:32;;;;;;;31.08;17.30;;;11.20;1.00;;;;;;4804342;29;20404;-88
2022/03/11 08:31:59;;;;;;;27.50;16.55;;;11.20;1.00;;;;;;4790934;29;20230;-89
2022/03/11 08:34:25;;;;;;;30.13;16.45;;;;;;;;;;4820731;29;20061;-89
2022/03/11 08:36:51;;;;;;;35.75;19.25;;;11.10;1.00;;;;;;4805325;29;20053;-89
2022/03/11 08:39:16;;;;;;;32.95;17.92;;;10.80;1.00;;;;;;4790780;29;20121;-88
2022/03/11 08:41:48;;;;;;;28.58;17.05;;;10.70;1.00;;;;;;4822115;29;20042;-89
2022/03/11 08:44:14;;;;;;;30.60;17.05;;;10.40;1.00;;;;;;4806165;29;20420;-88
2022/03/11 08:46:40;;;;;;;28.02;17.00;;;10.90;1.00;;;;;;4805561;29;20051;-90
2022/03/11 08:49:09;;;;;;;30.45;17.05;;;10.90;1.00;;;;;;4808348;29;20058;-90
2022/03/11 08:51:35;;;;;;;23.70;14.57;;;10.70;1.00;;;;;;4791591;29;20059;-87
2022/03/11 08:54:02;;;;;;;29.98;17.42;;;10.90;1.00;;;;;;4791079;29;20055;-89
2022/03/11 08:56:28;;;;;;;27.08;16.40;;;;;;;;;;4792203;29;20150;-89
2022/03/11 08:58:56;;;;;;;28.25;15.65;;;11.60;1.00;;;;;;4825396;29;20064;-90
2022/03/11 09:01:22;;;;;;;29.45;16.52;;;11.00;1.00;;;;;;4823702;29;20618;-88
2022/03/11 09:03:51;;;;;;;29.05;17.08;;;11.30;1.00;;;;;;4811957;29;20149;-88
2022/03/11 09:06:16;;;;;;;26.60;16.40;;;11.20;1.00;;;;;;4809002;29;20049;-89
2022/03/11 09:08:43;;;;;;;29.10;16.77;;;11.90;1.00;;;;;;4795886;29;20046;-89
2022/03/11 09:11:08;;;;;;;30.40;17.00;;;12.10;1.00;;;;;;4811539;29;20062;-88
2022/03/11 09:13:34;;;;;;;35.47;17.58;;;11.30;1.00;;;;;;4784882;29;20050;-91
2022/03/11 09:16:00;;;;;;;31.90;17.35;;;12.30;1.00;;;;;;4822647;29;20047;-90
2022/03/11 09:18:26;;;;;;;27.20;16.73;;;12.40;1.00;;;;;;4779647;29;20133;-88
2022/03/11 09:20:53;;;;;;;28.13;17.17;;;12.00;1.00;;;;;;4806749;29;20050;-90
2022/03/11 09:23:19;;;;;;;34.67;17.75;;;11.90;99.90;;;;;;4825329;29;20027;-91
2022/03/11 09:25:45;;;;;;;32.42;18.15;;;12.10;1.00;;;;;;4829742;29;20127;-91
2022/03/11 09:28:11;;;;;;;31.50;17.02;;;12.40;1.00;;;;;;4849447;29;20038;-89
2022/03/11 09:30:37;;;;;;;29.23;17.40;;;13.00;1.00;;;;;;4856948;29;20030;-89
2022/03/11 09:33:03;;;;;;;25.92;15.52;;;12.60;99.90;;;;;;4830615;29;20068;-89
2022/03/11 09:35:28;;;;;;;30.40;16.13;;;12.30;1.00;;;;;;4816938;29;20126;-91
2022/03/11 09:37:54;;;;;;;31.17;17.88;;;12.10;1.00;;;;;;4831005;29;20153;-94
2022/03/11 09:40:23;;;;;;;29.75;16.75;;;13.00;1.00;;;;;;4830596;29;20046;-88
2022/03/11 09:42:50;;;;;;;27.45;17.58;;;12.40;1.00;;;;;;4830397;29;20057;-92
2022/03/11 09:45:20;;;;;;;26.85;17.30;;;10.80;99.90;;;;;;4834340;29;20098;-90
2022/03/11 09:47:46;;;;;;;27.45;16.02;;;12.10;99.90;;;;;;4863579;29;20093;-90
2022/03/11 09:50:12;;;;;;;27.30;16.70;;;12.40;1.00;;;;;;4832368;29;20145;-90
2022/03/11 09:52:39;;;;;;;29.20;17.48;;;12.80;99.90;;;;;;4838399;29;20068;-90
2022/03/11 09:58:26;;;;;;;27.63;16.33;;;12.50;99.90;;;;;;5021641;27;4360294;-92
2022/03/11 10:01:30;;;;;;;29.88;19.45;;;11.70;1.00;;;;;;5114640;28;20501;-96
2022/03/11 10:04:05;;;;;;;36.58;19.63;;;12.00;1.00;;;;;;4995476;28;20068;-93
2022/03/11 10:06:40;;;;;;;28.85;16.73;;;12.30;1.00;;;;;;5016611;28;20042;-90
2022/03/11 10:09:47;;;;;;;27.38;17.20;;;11.70;1.00;;;;;;5095872;28;20043;-90
2022/03/11 10:12:39;;;;;;;27.88;17.63;;;11.60;1.00;;;;;;4980230;28;20064;-92
2022/03/11 10:15:05;;;;;;;31.63;19.50;;;11.80;99.90;;;;;;5096372;28;20461;-92
2022/03/11 10:17:38;;;;;;;32.80;19.45;;;12.10;1.00;;;;;;5077597;28;20100;-92
2022/03/11 10:20:08;;;;;;;28.20;17.63;;;12.20;1.00;;;;;;5094436;28;20051;-90
2022/03/11 10:22:35;;;;;;;32.58;18.55;;;11.30;1.00;;;;;;5095380;28;20098;-91
2022/03/11 10:25:18;;;;;;;28.33;18.38;;;9.50;99.90;;;;;;5094143;27;20070;-91
2022/03/11 10:28:02;;;;;;;32.55;17.90;;;10.40;1.00;;;;;;5093183;28;20047;-90
2022/03/11 10:30:33;;;;;;;31.83;18.60;;;10.20;1.00;;;;;;5112262;28;20126;-92
2022/03/11 10:33:12;;;;;;;31.30;17.90;;;10.80;1.00;;;;;;5099240;27;20035;-91
2022/03/11 10:35:50;;;;;;;28.85;17.20;;;11.00;99.90;;;;;;5132125;27;20039;-90
2022/03/11 10:38:20;;;;;;;27.95;16.33;;;10.90;99.90;;;;;;5096914;27;20054;-90
2022/03/11 10:40:54;;;;;;;34.47;17.77;;;11.00;99.90;;;;;;5128280;27;20039;-89
2022/03/11 10:43:34;;;;;;;31.98;17.67;;;10.90;99.90;;;;;;5111750;28;20514;-91
2022/03/11 10:46:02;;;;;;;29.27;17.50;;;9.70;99.90;;;;;;5090598;27;20045;-90
2022/03/11 10:48:48;;;;;;;30.92;18.42;;;12.40;99.90;;;;;;5132767;27;20042;-90
2022/03/11 10:51:35;;;;;;;30.38;16.75;;;12.00;99.90;;;;;;5109688;27;20558;-91
2022/03/11 10:54:07;;;;;;;29.70;17.58;;;12.50;99.90;;;;;;5094155;28;20107;-93
2022/03/11 10:56:39;;;;;;;29.50;17.45;;;12.00;99.90;;;;;;5094815;28;20460;-90
2022/03/11 10:59:23;;;;;;;34.13;17.55;;;11.30;99.90;;;;;;5111064;28;20051;-90
2022/03/11 11:01:52;;;;;;;30.98;17.38;;;11.60;99.90;;;;;;5101690;28;20046;-90
2022/03/11 11:04:18;;;;;;;27.88;16.83;;;12.00;99.90;;;;;;5092928;28;20489;-87
2022/03/11 11:06:48;;;;;;;29.45;17.00;;;11.10;99.90;;;;;;5127350;28;20043;-89
2022/03/11 11:09:23;;;;;;;30.45;17.95;;;13.50;99.90;;;;;;5089483;27;20047;-89
2022/03/11 11:11:51;;;;;;;29.15;17.73;;;14.30;99.90;;;;;;5095621;28;20056;-88
2022/03/11 11:14:20;;;;;;;29.65;17.75;;;13.90;99.90;;;;;;5078888;28;20379;-89
2022/03/11 11:16:48;;;;;;;29.27;17.20;;;14.20;99.90;;;;;;5078448;28;20050;-89
2022/03/11 11:19:23;;;;;;;28.50;17.55;;;14.40;99.90;;;;;;5078614;28;20086;-88
2022/03/11 11:21:51;;;;;;;28.45;17.08;;;14.80;99.90;;;;;;5113612;28;20048;-90
2022/03/11 11:24:22;;;;;;;28.58;17.30;;;14.50;99.90;;;;;;5095449;28;20047;-89
2022/03/11 11:26:50;;;;;;;29.60;16.85;;;15.40;99.90;;;;;;5079833;28;20062;-89
2022/03/11 11:29:26;;;;;;;26.70;17.15;;;15.10;99.90;;;;;;5096687;28;20047;-90
2022/03/11 11:31:52;;;;;;;27.33;15.95;;;15.00;99.90;;;;;;5079626;28;20079;-89
2022/03/11 11:34:30;;;;;;;29.90;17.00;;;15.20;99.90;;;;;;5105957;28;20120;-89
2022/03/11 11:37:00;;;;;;;28.15;16.08;;;15.80;99.90;;;;;;5079088;28;20043;-88
2022/03/11 11:39:35;;;;;;;26.88;16.10;;;15.50;99.90;;;;;;5134244;27;20054;-88
2022/03/11 11:42:11;;;;;;;30.00;16.55;;;15.00;99.90;;;;;;5116262;27;20057;-88
2022/03/11 11:44:39;;;;;;;26.73;16.70;;;15.10;99.90;;;;;;5092991;28;20035;-88
2022/03/11 11:47:22;;;;;;;24.83;16.58;;;15.00;99.90;;;;;;5119692;27;20048;-90
2022/03/11 11:49:52;;;;;;;29.05;15.85;;;14.60;99.90;;;;;;5094754;28;20044;-89
2022/03/11 11:52:29;;;;;;;30.17;16.85;;;15.30;99.90;;;;;;5115174;27;20036;-90
2022/03/11 11:55:17;;;;;;;31.65;16.30;;;14.00;99.90;;;;;;5085494;27;20059;-87
2022/03/11 11:57:46;;;;;;;25.00;15.73;;;15.10;99.90;;;;;;5091726;28;20515;-89
2022/03/11 12:00:27;;;;;;;27.02;15.57;;;15.10;99.90;;;;;;5091524;28;20412;-89
2022/03/11 12:02:53;;;;;;;26.65;15.68;;;15.30;99.90;;;;;;5094010;28;20074;-88
2022/03/11 12:05:44;;;;;;;27.52;16.10;;;15.60;99.90;;;;;;5092462;28;20373;-88
2022/03/11 12:08:31;;;;;;;26.42;16.25;;;15.70;99.90;;;;;;5079579;28;20168;-89
2022/03/11 12:10:57;;;;;;;27.90;15.50;;;16.60;99.90;;;;;;5092113;28;20364;-89
2022/03/11 12:13:37;;;;;;;25.58;15.55;;;16.50;99.90;;;;;;5099047;28;20163;-88
2022/03/11 12:16:15;;;;;;;30.15;16.92;;;16.20;99.90;;;;;;5095348;28;20341;-88
2022/03/11 12:18:45;;;;;;;26.10;15.33;;;15.60;99.90;;;;;;5112648;28;20091;-89
2022/03/11 12:21:39;;;;;;;24.58;15.30;;;14.70;99.90;;;;;;5112163;28;20313;-88
2022/03/11 12:24:30;;;;;;;28.75;16.27;;;13.80;99.90;;;;;;5096305;28;20456;-89
2022/03/11 12:26:56;;;;;;;25.35;15.15;;;13.20;99.90;;;;;;5075263;28;20039;-89
2022/03/11 12:29:34;;;;;;;24.98;14.75;;;12.80;99.90;;;;;;5091570;28;20453;-88
2022/03/11 12:32:01;;;;;;;;;;;12.50;99.90;;;;;;5093393;28;20052;-89
2022/03/11 12:34:29;;;;;;;28.65;15.05;;;11.10;99.90;;;;;;5074775;28;20014;-89
2022/03/11 12:36:55;;;;;;;25.00;14.55;;;12.40;99.90;;;;;;5074884;28;20047;-88
2022/03/11 12:39:28;;;;;;;26.70;13.93;;;12.40;99.90;;;;;;5074342;28;20048;-89
2022/03/11 12:41:55;;;;;;;28.55;14.77;;;12.40;99.90;;;;;;5091865;28;20380;-89
2022/03/11 12:44:21;;;;;;;27.25;14.65;;;12.40;99.90;;;;;;5060798;28;20349;-89
2022/03/11 12:46:47;;;;;;;25.90;14.38;;;12.20;99.90;;;;;;5090691;28;20047;-89
2022/03/11 12:49:26;;;;;;;32.42;15.32;;;11.80;99.90;;;;;;5056540;28;20043;-88
2022/03/11 12:51:52;;;;;;;25.65;14.45;;;12.30;99.90;;;;;;5093730;28;20040;-87
2022/03/11 12:54:20;;;;;;;24.60;14.13;;;12.30;99.90;;;;;;5101899;28;20047;-88
2022/03/11 12:56:48;;;;;;;30.33;14.80;;;12.30;99.90;;;;;;5091890;28;20051;-88
2022/03/11 12:59:16;;;;;;;25.08;15.13;;;12.50;99.90;;;;;;5093788;28;20051;-87